Ladbroke Grove, United Kingdom
Current Conditions -  °F | °C
As of 9:50 AM on Thursday 27 Nov 2014 (Local Time) from EGWU Reporting Station
Haze Haze  
Wind Chill: 46°   Ceiling: Unl
Heat Index: 48°   Visibility: 5mi
Dew Point: 46°   Wind: 6mph
Humidity: 93%   Direction: 220°SW
Pressure: 29.62"   Gusts: NA
Location:  51.53°N, 0.22°W
Report Text: EGWU 270950Z 22005KT 8000 BR FEW003 SCT006 09/08 Q1003 TEMPO FEW006
Loading
Personal Weather Stations






























Interactive Weather Map New forecast layout! Learn more

10-Day Weather Forecast

Advertisements
Track Severe Weather on mobile